createdAt,value
2018-06-29T00:04:41.863Z,45
2018-06-29T00:09:41.919Z,45
2018-06-29T00:14:41.018Z,45
2018-06-29T00:19:41.203Z,45
2018-06-29T00:24:41.274Z,45
2018-06-29T00:29:41.331Z,45
2018-06-29T00:34:41.558Z,45
2018-06-29T00:39:41.162Z,45
2018-06-29T00:44:41.211Z,45
2018-06-29T00:49:41.303Z,45
2018-06-29T00:54:41.601Z,45
2018-06-29T00:59:41.741Z,45
2018-06-29T01:04:41.932Z,45
2018-06-29T01:09:41.111Z,45
2018-06-29T01:14:41.071Z,45
2018-06-29T01:19:41.561Z,45
2018-06-29T01:24:41.731Z,45
2018-06-29T01:29:41.719Z,45
2018-06-29T01:34:41.244Z,45
2018-06-29T01:39:41.487Z,45
2018-06-29T01:44:41.642Z,45
2018-06-29T01:49:41.700Z,45
2018-06-29T01:54:41.811Z,45
2018-06-29T01:59:41.839Z,45
2018-06-29T02:04:42.129Z,45
2018-06-29T02:09:41.707Z,45
2018-06-29T02:14:41.750Z,45
2018-06-29T02:19:41.859Z,45
2018-06-29T02:24:41.900Z,45
2018-06-29T02:29:41.094Z,45
2018-06-29T02:34:41.912Z,45
2018-06-29T02:39:41.146Z,45
2018-06-29T02:44:41.213Z,45
2018-06-29T02:49:41.682Z,45
2018-06-29T02:54:41.773Z,45
2018-06-29T02:59:41.854Z,45
2018-06-29T03:04:41.897Z,45
2018-06-29T03:09:41.418Z,45
2018-06-29T03:14:41.615Z,45
2018-06-29T03:19:41.897Z,45
2018-06-29T03:24:41.979Z,45
2018-06-29T03:29:42.005Z,45
2018-06-29T03:34:42.082Z,45
2018-06-29T03:39:41.246Z,45
2018-06-29T03:44:41.295Z,45
2018-06-29T03:49:41.416Z,45
2018-06-29T03:54:41.540Z,45
2018-06-29T03:59:41.641Z,45
2018-06-29T04:04:41.872Z,45
2018-06-29T04:09:41.854Z,45
2018-06-29T04:14:41.971Z,45
2018-06-29T04:19:42.197Z,45
2018-06-29T04:24:41.178Z,22
2018-06-29T04:29:41.343Z,22
2018-06-29T04:34:41.345Z,22
2018-06-29T04:39:41.440Z,22
2018-06-29T04:44:41.542Z,22
2018-06-29T04:49:41.765Z,22
2018-06-29T04:54:41.785Z,315
2018-06-29T04:59:41.924Z,315
2018-06-29T05:04:42.295Z,315
2018-06-29T05:09:41.853Z,315
2018-06-29T05:14:41.897Z,315
2018-06-29T05:19:41.861Z,315
2018-06-29T05:24:42.040Z,292
2018-06-29T05:29:42.146Z,292
2018-06-29T05:34:42.325Z,315
2018-06-29T05:39:41.390Z,315
2018-06-29T05:44:41.589Z,315
2018-06-29T05:49:41.736Z,315
2018-06-29T05:54:41.836Z,315
2018-06-29T05:59:41.891Z,315
2018-06-29T06:04:41.939Z,315
2018-06-29T06:09:42.128Z,315
2018-06-29T06:14:42.210Z,315
2018-06-29T06:19:42.049Z,315
2018-06-29T06:24:41.429Z,315
2018-06-29T06:29:41.515Z,315
2018-06-29T06:34:41.582Z,315
2018-06-29T06:39:41.651Z,315
2018-06-29T06:44:41.757Z,248
2018-06-29T06:49:42.015Z,248
2018-06-29T06:54:42.152Z,315
2018-06-29T06:59:42.183Z,315
2018-06-29T07:04:42.379Z,180
2018-06-29T07:09:41.877Z,180
2018-06-29T07:14:42.048Z,292
2018-06-29T07:19:42.186Z,292
2018-06-29T07:24:42.321Z,315
2018-06-29T07:29:41.449Z,315
2018-06-29T07:34:41.563Z,315
2018-06-29T07:39:41.691Z,315
2018-06-29T07:44:41.713Z,315
2018-06-29T07:49:41.765Z,315
2018-06-29T07:54:41.781Z,292
2018-06-29T07:59:41.821Z,292
2018-06-29T08:04:42.029Z,315
2018-06-29T08:09:42.329Z,315
2018-06-29T08:14:41.424Z,315
2018-06-29T08:19:41.661Z,315
2018-06-29T08:24:41.663Z,292
2018-06-29T08:29:41.817Z,292
2018-06-29T08:34:41.979Z,315
2018-06-29T08:39:41.994Z,315
2018-06-29T08:44:42.012Z,315
2018-06-29T08:49:42.316Z,315
2018-06-29T08:54:42.464Z,292
2018-06-29T08:59:41.578Z,292
2018-06-29T09:04:41.724Z,270
2018-06-29T09:09:41.690Z,270
2018-06-29T09:14:41.750Z,315
2018-06-29T09:19:41.901Z,315
2018-06-29T09:24:42.016Z,315
2018-06-29T09:29:42.040Z,315
2018-06-29T09:34:42.140Z,292
2018-06-29T09:39:42.297Z,292
2018-06-29T09:44:42.397Z,315
2018-06-29T09:49:41.595Z,315
2018-06-29T09:54:41.620Z,315
2018-06-29T09:59:41.669Z,315
2018-06-29T10:04:41.977Z,315
2018-06-29T10:09:41.604Z,315
2018-06-29T10:14:41.666Z,0
2018-06-29T10:19:42.595Z,0
2018-06-29T10:24:41.814Z,338
2018-06-29T10:29:41.858Z,338
2018-06-29T10:34:41.957Z,315
2018-06-29T10:39:42.039Z,315
2018-06-29T10:44:42.152Z,315
2018-06-29T10:49:42.228Z,315
2018-06-29T10:54:42.302Z,292
2018-06-29T10:59:42.479Z,292
2018-06-29T11:04:42.614Z,315
2018-06-29T11:09:41.839Z,315
2018-06-29T11:14:41.905Z,315
2018-06-29T11:19:41.940Z,315
2018-06-29T11:24:41.997Z,315
2018-06-29T11:29:42.104Z,315
2018-06-29T11:34:42.145Z,315
2018-06-29T11:39:42.291Z,315
2018-06-29T11:44:42.377Z,315
2018-06-29T11:49:42.536Z,315
2018-06-29T11:54:41.699Z,315
2018-06-29T11:59:41.793Z,315
2018-06-29T12:04:41.903Z,90
2018-06-29T12:09:42.195Z,90
2018-06-29T12:14:42.262Z,68
2018-06-29T12:19:42.495Z,68
2018-06-29T12:24:42.542Z,90
2018-06-29T12:29:42.580Z,90
2018-06-29T12:34:42.048Z,68
2018-06-29T12:39:42.073Z,68
2018-06-29T12:44:42.245Z,68
2018-06-29T12:49:42.392Z,68
2018-06-29T12:54:42.449Z,292
2018-06-29T12:59:42.526Z,292
2018-06-29T13:04:42.806Z,315
2018-06-29T13:09:42.114Z,315
2018-06-29T13:14:42.056Z,90
2018-06-29T13:19:42.266Z,90
2018-06-29T13:24:42.284Z,68
2018-06-29T13:29:42.415Z,68
2018-06-29T13:34:42.556Z,45
2018-06-29T13:39:42.718Z,45
2018-06-29T13:44:41.882Z,315
2018-06-29T13:49:42.563Z,315
2018-06-29T13:54:42.227Z,68
2018-06-29T13:59:41.938Z,68
2018-06-29T14:04:42.646Z,315
2018-06-29T14:09:42.494Z,315
2018-06-29T14:14:42.304Z,292
2018-06-29T14:19:41.902Z,292
2018-06-29T14:24:42.662Z,22
2018-06-29T14:29:42.360Z,22
2018-06-29T14:34:42.102Z,68
2018-06-29T14:39:42.717Z,68
2018-06-29T14:44:42.565Z,292
2018-06-29T14:49:42.216Z,292
2018-06-29T14:54:42.889Z,68
2018-06-29T14:59:42.619Z,68
2018-06-29T15:04:42.389Z,68
2018-06-29T15:09:42.191Z,68
2018-06-29T15:14:42.365Z,68
2018-06-29T15:19:42.018Z,68
2018-06-29T15:24:42.728Z,68
2018-06-29T15:29:42.351Z,68
2018-06-29T15:34:42.108Z,292
2018-06-29T15:39:42.776Z,292
2018-06-29T15:44:42.325Z,45
2018-06-29T15:49:42.102Z,45
2018-06-29T15:54:42.877Z,338
2018-06-29T15:59:42.687Z,338
2018-06-29T16:04:42.456Z,112
2018-06-29T16:09:42.145Z,112
2018-06-29T16:14:42.487Z,45
2018-06-29T16:19:42.231Z,45
2018-06-29T16:24:43.052Z,68
2018-06-29T16:29:42.729Z,68
2018-06-29T16:34:42.421Z,315
2018-06-29T16:39:42.196Z,315
2018-06-29T16:44:43.014Z,68
2018-06-29T16:49:42.741Z,68
2018-06-29T16:54:42.581Z,68
2018-06-29T16:59:42.213Z,68
2018-06-29T17:04:42.976Z,45
2018-06-29T17:09:42.695Z,45
2018-06-29T17:14:42.623Z,68
2018-06-29T17:19:42.324Z,68
2018-06-29T17:24:42.119Z,68
2018-06-29T17:29:42.852Z,68
2018-06-29T17:34:42.896Z,68
2018-06-29T17:39:42.493Z,68
2018-06-29T17:44:42.260Z,45
2018-06-29T17:49:43.019Z,45
2018-06-29T17:54:42.668Z,68
2018-06-29T17:59:42.667Z,68
2018-06-29T18:04:42.576Z,68
2018-06-29T18:09:42.256Z,68
2018-06-29T18:14:42.338Z,68
2018-06-29T18:19:42.954Z,68
2018-06-29T18:24:42.632Z,68
2018-06-29T18:29:42.188Z,68
2018-06-29T18:34:42.988Z,68
2018-06-29T18:39:42.623Z,68
2018-06-29T18:44:42.398Z,68
2018-06-29T18:49:43.036Z,68
2018-06-29T18:54:42.715Z,68
2018-06-29T18:59:42.395Z,68
2018-06-29T19:04:42.500Z,68
2018-06-29T19:09:42.348Z,68
2018-06-29T19:14:42.915Z,68
2018-06-29T19:19:42.659Z,68
2018-06-29T19:24:42.419Z,68
2018-06-29T19:29:42.918Z,68
2018-06-29T19:34:42.694Z,68
2018-06-29T19:39:42.694Z,68
2018-06-29T19:44:42.467Z,45
2018-06-29T19:49:43.128Z,45
2018-06-29T19:54:42.706Z,45
2018-06-29T19:59:42.339Z,45
2018-06-29T20:04:43.102Z,338
2018-06-29T20:09:42.853Z,338
2018-06-29T20:14:42.885Z,338
2018-06-29T20:19:42.518Z,338
2018-06-29T20:24:42.359Z,338
2018-06-29T20:29:42.977Z,338
2018-06-29T20:34:42.984Z,22
2018-06-29T20:39:42.578Z,22
2018-06-29T20:44:42.427Z,45
2018-06-29T20:49:43.174Z,45
2018-06-29T20:54:42.886Z,68
2018-06-29T20:59:42.591Z,68
2018-06-29T21:04:42.517Z,68
2018-06-29T21:09:43.273Z,68
2018-06-29T21:14:42.499Z,68
2018-06-29T21:19:43.219Z,68
2018-06-29T21:24:42.962Z,315
2018-06-29T21:29:42.548Z,315
2018-06-29T21:34:43.232Z,315
2018-06-29T21:39:42.844Z,315
2018-06-29T21:44:42.539Z,315
2018-06-29T21:49:43.135Z,315
2018-06-29T21:54:43.091Z,315
2018-06-29T21:59:42.718Z,315
2018-06-29T22:04:42.619Z,315
2018-06-29T22:09:43.349Z,315
2018-06-29T22:14:42.674Z,315
2018-06-29T22:19:42.583Z,315
2018-06-29T22:24:43.285Z,0
2018-06-29T22:29:42.911Z,0
2018-06-29T22:34:42.717Z,0
2018-06-29T22:39:42.501Z,0
2018-06-29T22:44:43.280Z,0
2018-06-29T22:49:43.044Z,0
2018-06-29T22:54:42.909Z,0
2018-06-29T22:59:42.582Z,0
2018-06-29T23:04:42.568Z,0
2018-06-29T23:09:43.262Z,0
2018-06-29T23:14:43.350Z,0
2018-06-29T23:19:43.065Z,0
2018-06-29T23:24:42.792Z,0
2018-06-29T23:29:43.610Z,0
2018-06-29T23:34:43.594Z,0
2018-06-29T23:39:43.263Z,0
2018-06-29T23:44:42.878Z,0
2018-06-29T23:49:43.557Z,0
2018-06-29T23:54:43.459Z,0
2018-06-29T23:59:43.121Z,0
